sensor_id;sensor_type;location;lat;lon;timestamp;P1;durP1;ratioP1;P2;durP2;ratioP2
81306;SDS011;70775;50.846;3.224;2023-09-19T00:04:04;21.77;;;5.55;;
81306;SDS011;70775;50.846;3.224;2023-09-19T00:06:35;20.17;;;4.40;;
81306;SDS011;70775;50.846;3.224;2023-09-19T00:11:37;12.82;;;3.38;;
81306;SDS011;70775;50.846;3.224;2023-09-19T00:14:12;12.50;;;3.00;;
81306;SDS011;70775;50.846;3.224;2023-09-19T00:16:39;10.50;;;2.78;;
81306;SDS011;70775;50.846;3.224;2023-09-19T00:19:06;12.48;;;2.92;;
81306;SDS011;70775;50.846;3.224;2023-09-19T00:24:31;12.20;;;2.38;;
81306;SDS011;70775;50.846;3.224;2023-09-19T00:27:09;14.43;;;3.67;;
81306;SDS011;70775;50.846;3.224;2023-09-19T00:29:35;13.57;;;2.85;;
81306;SDS011;70775;50.846;3.224;2023-09-19T00:34:30;16.45;;;3.65;;
81306;SDS011;70775;50.846;3.224;2023-09-19T00:36:59;13.35;;;2.70;;
81306;SDS011;70775;50.846;3.224;2023-09-19T00:39:24;11.35;;;2.70;;
81306;SDS011;70775;50.846;3.224;2023-09-19T00:42:05;16.25;;;3.25;;
81306;SDS011;70775;50.846;3.224;2023-09-19T00:44:35;17.45;;;3.28;;
81306;SDS011;70775;50.846;3.224;2023-09-19T00:47:01;13.18;;;2.85;;
81306;SDS011;70775;50.846;3.224;2023-09-19T00:49:27;12.63;;;3.80;;
81306;SDS011;70775;50.846;3.224;2023-09-19T00:51:59;15.02;;;3.65;;
81306;SDS011;70775;50.846;3.224;2023-09-19T00:54:25;16.17;;;3.40;;
81306;SDS011;70775;50.846;3.224;2023-09-19T00:56:50;16.52;;;3.33;;
81306;SDS011;70775;50.846;3.224;2023-09-19T00:59:19;12.05;;;2.53;;
81306;SDS011;70775;50.846;3.224;2023-09-19T01:04:25;10.75;;;2.80;;
81306;SDS011;70775;50.846;3.224;2023-09-19T01:06:52;13.13;;;3.22;;
81306;SDS011;70775;50.846;3.224;2023-09-19T01:09:19;10.68;;;2.80;;
81306;SDS011;70775;50.846;3.224;2023-09-19T01:11:46;10.13;;;2.65;;
81306;SDS011;70775;50.846;3.224;2023-09-19T01:17:40;11.95;;;2.72;;
81306;SDS011;70775;50.846;3.224;2023-09-19T01:32:42;13.77;;;3.83;;
81306;SDS011;70775;50.846;3.224;2023-09-19T01:38:18;8.55;;;2.47;;
81306;SDS011;70775;50.846;3.224;2023-09-19T01:41:21;14.95;;;2.45;;
81306;SDS011;70775;50.846;3.224;2023-09-19T01:43:42;15.13;;;3.10;;
81306;SDS011;70775;50.846;3.224;2023-09-19T01:52:05;8.57;;;2.67;;
81306;SDS011;70775;50.846;3.224;2023-09-19T01:54:51;11.18;;;2.60;;
81306;SDS011;70775;50.846;3.224;2023-09-19T01:57:20;11.05;;;2.80;;
81306;SDS011;70775;50.846;3.224;2023-09-19T02:00:03;15.93;;;3.88;;
81306;SDS011;70775;50.846;3.224;2023-09-19T02:02:53;12.93;;;3.30;;
81306;SDS011;70775;50.846;3.224;2023-09-19T02:05:23;14.98;;;2.88;;
81306;SDS011;70775;50.846;3.224;2023-09-19T02:07:49;5.95;;;2.08;;
81306;SDS011;70775;50.846;3.224;2023-09-19T02:10:18;9.45;;;2.20;;
81306;SDS011;70775;50.846;3.224;2023-09-19T02:12:44;11.70;;;2.47;;
81306;SDS011;70775;50.846;3.224;2023-09-19T02:15:10;14.48;;;2.10;;
81306;SDS011;70775;50.846;3.224;2023-09-19T02:17:35;11.27;;;2.60;;
81306;SDS011;70775;50.846;3.224;2023-09-19T02:20:01;7.80;;;2.22;;
81306;SDS011;70775;50.846;3.224;2023-09-19T02:22:28;9.55;;;3.10;;
81306;SDS011;70775;50.846;3.224;2023-09-19T02:24:54;13.98;;;2.70;;
81306;SDS011;70775;50.846;3.224;2023-09-19T02:27:23;9.05;;;2.53;;
81306;SDS011;70775;50.846;3.224;2023-09-19T02:29:50;12.70;;;3.05;;
81306;SDS011;70775;50.846;3.224;2023-09-19T02:35:18;12.85;;;2.85;;
81306;SDS011;70775;50.846;3.224;2023-09-19T02:37:47;12.18;;;2.88;;
81306;SDS011;70775;50.846;3.224;2023-09-19T02:40:13;13.90;;;2.40;;
81306;SDS011;70775;50.846;3.224;2023-09-19T02:42:52;15.95;;;3.28;;
81306;SDS011;70775;50.846;3.224;2023-09-19T02:45:20;10.40;;;2.38;;
81306;SDS011;70775;50.846;3.224;2023-09-19T02:53:28;18.67;;;3.08;;
81306;SDS011;70775;50.846;3.224;2023-09-19T02:55:55;11.93;;;2.40;;
81306;SDS011;70775;50.846;3.224;2023-09-19T02:58:21;12.43;;;2.58;;
81306;SDS011;70775;50.846;3.224;2023-09-19T03:00:48;12.23;;;3.00;;
81306;SDS011;70775;50.846;3.224;2023-09-19T03:03:16;16.10;;;3.10;;
81306;SDS011;70775;50.846;3.224;2023-09-19T03:05:42;19.52;;;3.20;;
81306;SDS011;70775;50.846;3.224;2023-09-19T03:08:12;11.52;;;3.08;;
81306;SDS011;70775;50.846;3.224;2023-09-19T03:10:45;15.40;;;3.15;;
81306;SDS011;70775;50.846;3.224;2023-09-19T03:13:19;11.30;;;2.50;;
81306;SDS011;70775;50.846;3.224;2023-09-19T03:16:01;20.35;;;2.88;;
81306;SDS011;70775;50.846;3.224;2023-09-19T03:18:30;15.25;;;3.00;;
81306;SDS011;70775;50.846;3.224;2023-09-19T03:21:07;10.93;;;3.15;;
81306;SDS011;70775;50.846;3.224;2023-09-19T03:23:32;14.48;;;2.78;;
81306;SDS011;70775;50.846;3.224;2023-09-19T03:26:00;12.30;;;3.25;;
81306;SDS011;70775;50.846;3.224;2023-09-19T03:31:17;11.25;;;2.67;;
81306;SDS011;70775;50.846;3.224;2023-09-19T03:33:43;10.45;;;2.53;;
81306;SDS011;70775;50.846;3.224;2023-09-19T03:36:09;10.23;;;3.03;;
81306;SDS011;70775;50.846;3.224;2023-09-19T03:38:34;11.02;;;2.90;;
81306;SDS011;70775;50.846;3.224;2023-09-19T03:41:01;8.38;;;2.15;;
81306;SDS011;70775;50.846;3.224;2023-09-19T03:43:27;10.88;;;3.10;;
81306;SDS011;70775;50.846;3.224;2023-09-19T03:49:13;8.65;;;2.95;;
81306;SDS011;70775;50.846;3.224;2023-09-19T03:55:13;12.82;;;2.70;;
81306;SDS011;70775;50.846;3.224;2023-09-19T03:57:39;17.10;;;2.95;;
81306;SDS011;70775;50.846;3.224;2023-09-19T04:00:05;13.95;;;3.20;;
81306;SDS011;70775;50.846;3.224;2023-09-19T04:02:51;14.20;;;3.58;;
81306;SDS011;70775;50.846;3.224;2023-09-19T04:08:29;14.00;;;3.00;;
81306;SDS011;70775;50.846;3.224;2023-09-19T04:10:58;10.13;;;2.45;;
81306;SDS011;70775;50.846;3.224;2023-09-19T04:13:26;13.30;;;2.22;;
81306;SDS011;70775;50.846;3.224;2023-09-19T04:16:03;17.23;;;2.97;;
81306;SDS011;70775;50.846;3.224;2023-09-19T04:18:29;14.45;;;2.80;;
81306;SDS011;70775;50.846;3.224;2023-09-19T04:23:35;18.02;;;3.83;;
81306;SDS011;70775;50.846;3.224;2023-09-19T04:28:42;12.63;;;3.67;;
81306;SDS011;70775;50.846;3.224;2023-09-19T04:31:08;13.30;;;3.45;;
81306;SDS011;70775;50.846;3.224;2023-09-19T04:33:35;16.75;;;2.78;;
81306;SDS011;70775;50.846;3.224;2023-09-19T04:39:10;20.85;;;4.55;;
81306;SDS011;70775;50.846;3.224;2023-09-19T04:41:37;11.48;;;3.38;;
81306;SDS011;70775;50.846;3.224;2023-09-19T04:44:05;17.90;;;3.67;;
81306;SDS011;70775;50.846;3.224;2023-09-19T04:46:31;16.30;;;3.13;;
81306;SDS011;70775;50.846;3.224;2023-09-19T04:48:57;13.00;;;3.28;;
81306;SDS011;70775;50.846;3.224;2023-09-19T04:51:22;13.20;;;2.83;;
81306;SDS011;70775;50.846;3.224;2023-09-19T04:53:48;11.80;;;2.88;;
81306;SDS011;70775;50.846;3.224;2023-09-19T04:59:36;9.07;;;2.45;;
81306;SDS011;70775;50.846;3.224;2023-09-19T05:02:01;13.55;;;3.20;;
81306;SDS011;70775;50.846;3.224;2023-09-19T05:04:27;14.68;;;3.70;;
81306;SDS011;70775;50.846;3.224;2023-09-19T05:06:53;15.45;;;2.65;;
81306;SDS011;70775;50.846;3.224;2023-09-19T05:09:19;8.35;;;2.70;;
81306;SDS011;70775;50.846;3.224;2023-09-19T05:11:46;14.10;;;2.70;;
81306;SDS011;70775;50.846;3.224;2023-09-19T05:14:13;14.35;;;2.72;;
81306;SDS011;70775;50.846;3.224;2023-09-19T05:19:42;12.98;;;2.85;;
81306;SDS011;70775;50.846;3.224;2023-09-19T05:22:08;16.45;;;2.97;;
81306;SDS011;70775;50.846;3.224;2023-09-19T05:24:33;14.05;;;2.88;;
81306;SDS011;70775;50.846;3.224;2023-09-19T05:27:16;16.80;;;2.70;;
81306;SDS011;70775;50.846;3.224;2023-09-19T05:29:42;13.38;;;2.70;;
81306;SDS011;70775;50.846;3.224;2023-09-19T05:32:09;8.30;;;3.05;;
81306;SDS011;70775;50.846;3.224;2023-09-19T05:37:26;14.82;;;3.15;;
81306;SDS011;70775;50.846;3.224;2023-09-19T05:39:52;18.80;;;3.28;;
81306;SDS011;70775;50.846;3.224;2023-09-19T05:45:41;8.15;;;2.40;;
81306;SDS011;70775;50.846;3.224;2023-09-19T05:48:20;12.30;;;2.75;;
81306;SDS011;70775;50.846;3.224;2023-09-19T05:50:47;11.88;;;2.88;;
81306;SDS011;70775;50.846;3.224;2023-09-19T05:53:14;13.70;;;2.90;;
81306;SDS011;70775;50.846;3.224;2023-09-19T05:55:40;17.88;;;2.72;;
81306;SDS011;70775;50.846;3.224;2023-09-19T05:58:06;14.13;;;3.05;;
81306;SDS011;70775;50.846;3.224;2023-09-19T06:00:32;15.80;;;3.22;;
81306;SDS011;70775;50.846;3.224;2023-09-19T06:02:58;15.27;;;3.17;;
81306;SDS011;70775;50.846;3.224;2023-09-19T06:05:27;11.40;;;2.85;;
81306;SDS011;70775;50.846;3.224;2023-09-19T06:07:55;11.90;;;3.35;;
81306;SDS011;70775;50.846;3.224;2023-09-19T06:10:25;12.98;;;3.53;;
81306;SDS011;70775;50.846;3.224;2023-09-19T06:12:51;15.63;;;3.28;;
81306;SDS011;70775;50.846;3.224;2023-09-19T06:15:18;11.73;;;2.58;;
81306;SDS011;70775;50.846;3.224;2023-09-19T06:17:50;16.02;;;3.00;;
81306;SDS011;70775;50.846;3.224;2023-09-19T06:20:20;9.75;;;3.00;;
81306;SDS011;70775;50.846;3.224;2023-09-19T06:22:48;16.98;;;3.38;;
81306;SDS011;70775;50.846;3.224;2023-09-19T06:25:14;13.50;;;3.28;;
81306;SDS011;70775;50.846;3.224;2023-09-19T06:30:20;12.27;;;2.72;;
81306;SDS011;70775;50.846;3.224;2023-09-19T06:32:48;26.52;;;4.55;;
81306;SDS011;70775;50.846;3.224;2023-09-19T06:35:15;11.38;;;3.20;;
81306;SDS011;70775;50.846;3.224;2023-09-19T06:37:41;15.40;;;2.55;;
81306;SDS011;70775;50.846;3.224;2023-09-19T06:42:42;12.52;;;3.08;;
81306;SDS011;70775;50.846;3.224;2023-09-19T06:45:12;10.00;;;2.67;;
81306;SDS011;70775;50.846;3.224;2023-09-19T06:47:43;14.15;;;3.55;;
81306;SDS011;70775;50.846;3.224;2023-09-19T06:50:11;9.77;;;2.58;;
81306;SDS011;70775;50.846;3.224;2023-09-19T06:52:42;8.45;;;2.80;;
81306;SDS011;70775;50.846;3.224;2023-09-19T06:55:08;12.50;;;2.95;;
81306;SDS011;70775;50.846;3.224;2023-09-19T06:57:38;15.25;;;2.78;;
81306;SDS011;70775;50.846;3.224;2023-09-19T07:00:05;8.00;;;2.75;;
81306;SDS011;70775;50.846;3.224;2023-09-19T07:03:02;8.43;;;3.17;;
81306;SDS011;70775;50.846;3.224;2023-09-19T07:05:30;21.90;;;3.65;;
81306;SDS011;70775;50.846;3.224;2023-09-19T07:07:59;11.80;;;2.88;;
81306;SDS011;70775;50.846;3.224;2023-09-19T07:10:25;11.77;;;3.15;;
81306;SDS011;70775;50.846;3.224;2023-09-19T07:15:21;18.10;;;3.50;;
81306;SDS011;70775;50.846;3.224;2023-09-19T07:17:49;14.00;;;3.70;;
81306;SDS011;70775;50.846;3.224;2023-09-19T07:20:15;10.00;;;2.90;;
81306;SDS011;70775;50.846;3.224;2023-09-19T07:22:41;9.80;;;2.85;;
81306;SDS011;70775;50.846;3.224;2023-09-19T07:25:07;15.60;;;3.17;;
81306;SDS011;70775;50.846;3.224;2023-09-19T07:27:33;9.18;;;2.35;;
81306;SDS011;70775;50.846;3.224;2023-09-19T07:29:58;11.43;;;2.60;;
81306;SDS011;70775;50.846;3.224;2023-09-19T07:32:24;11.75;;;2.38;;
81306;SDS011;70775;50.846;3.224;2023-09-19T07:34:50;9.77;;;2.50;;
81306;SDS011;70775;50.846;3.224;2023-09-19T07:37:15;11.60;;;3.03;;
81306;SDS011;70775;50.846;3.224;2023-09-19T07:39:41;9.70;;;2.08;;
81306;SDS011;70775;50.846;3.224;2023-09-19T07:42:08;13.70;;;2.42;;
81306;SDS011;70775;50.846;3.224;2023-09-19T07:44:35;12.25;;;2.55;;
81306;SDS011;70775;50.846;3.224;2023-09-19T07:47:01;14.82;;;3.63;;
81306;SDS011;70775;50.846;3.224;2023-09-19T07:49:28;14.00;;;2.85;;
81306;SDS011;70775;50.846;3.224;2023-09-19T07:51:54;12.80;;;2.75;;
81306;SDS011;70775;50.846;3.224;2023-09-19T07:54:21;17.80;;;3.58;;
81306;SDS011;70775;50.846;3.224;2023-09-19T07:56:47;10.90;;;2.72;;
81306;SDS011;70775;50.846;3.224;2023-09-19T07:59:12;16.17;;;2.90;;
81306;SDS011;70775;50.846;3.224;2023-09-19T08:01:38;12.68;;;4.15;;
81306;SDS011;70775;50.846;3.224;2023-09-19T08:04:06;11.60;;;3.15;;
81306;SDS011;70775;50.846;3.224;2023-09-19T08:06:32;11.10;;;2.55;;
81306;SDS011;70775;50.846;3.224;2023-09-19T08:08:58;9.02;;;2.13;;
81306;SDS011;70775;50.846;3.224;2023-09-19T08:11:25;11.73;;;2.30;;
81306;SDS011;70775;50.846;3.224;2023-09-19T08:13:51;12.77;;;2.78;;
81306;SDS011;70775;50.846;3.224;2023-09-19T08:16:17;14.27;;;2.88;;
81306;SDS011;70775;50.846;3.224;2023-09-19T08:18:48;10.85;;;3.05;;
81306;SDS011;70775;50.846;3.224;2023-09-19T08:21:20;10.60;;;3.60;;
81306;SDS011;70775;50.846;3.224;2023-09-19T08:23:46;20.10;;;3.22;;
81306;SDS011;70775;50.846;3.224;2023-09-19T08:26:12;11.10;;;3.05;;
81306;SDS011;70775;50.846;3.224;2023-09-19T08:28:38;7.80;;;2.10;;
81306;SDS011;70775;50.846;3.224;2023-09-19T08:31:06;14.07;;;3.30;;
81306;SDS011;70775;50.846;3.224;2023-09-19T08:33:33;13.57;;;2.53;;
81306;SDS011;70775;50.846;3.224;2023-09-19T08:36:00;9.65;;;2.42;;
81306;SDS011;70775;50.846;3.224;2023-09-19T08:38:26;12.07;;;2.97;;
81306;SDS011;70775;50.846;3.224;2023-09-19T08:40:58;9.55;;;2.50;;
81306;SDS011;70775;50.846;3.224;2023-09-19T08:43:25;14.77;;;2.95;;
81306;SDS011;70775;50.846;3.224;2023-09-19T08:45:54;13.45;;;3.10;;
81306;SDS011;70775;50.846;3.224;2023-09-19T08:48:54;7.43;;;2.60;;
81306;SDS011;70775;50.846;3.224;2023-09-19T08:51:30;11.85;;;3.60;;
81306;SDS011;70775;50.846;3.224;2023-09-19T08:54:28;9.13;;;3.03;;
81306;SDS011;70775;50.846;3.224;2023-09-19T08:56:56;12.35;;;2.33;;
81306;SDS011;70775;50.846;3.224;2023-09-19T08:59:33;11.93;;;2.28;;
81306;SDS011;70775;50.846;3.224;2023-09-19T09:02:00;9.90;;;2.08;;
81306;SDS011;70775;50.846;3.224;2023-09-19T09:04:26;12.95;;;2.50;;
81306;SDS011;70775;50.846;3.224;2023-09-19T09:06:53;9.75;;;2.42;;
81306;SDS011;70775;50.846;3.224;2023-09-19T09:09:20;23.05;;;2.83;;
81306;SDS011;70775;50.846;3.224;2023-09-19T09:11:48;7.93;;;2.28;;
81306;SDS011;70775;50.846;3.224;2023-09-19T09:14:18;5.95;;;1.65;;
81306;SDS011;70775;50.846;3.224;2023-09-19T09:16:46;5.50;;;2.17;;
81306;SDS011;70775;50.846;3.224;2023-09-19T09:19:13;7.75;;;1.98;;
81306;SDS011;70775;50.846;3.224;2023-09-19T09:21:39;6.53;;;1.45;;
81306;SDS011;70775;50.846;3.224;2023-09-19T09:26:58;6.70;;;2.05;;
81306;SDS011;70775;50.846;3.224;2023-09-19T09:32:24;9.23;;;2.30;;
81306;SDS011;70775;50.846;3.224;2023-09-19T09:34:58;4.88;;;1.17;;
81306;SDS011;70775;50.846;3.224;2023-09-19T09:39:59;3.85;;;1.35;;
81306;SDS011;70775;50.846;3.224;2023-09-19T09:42:44;7.78;;;2.22;;
81306;SDS011;70775;50.846;3.224;2023-09-19T09:45:12;8.05;;;1.55;;
81306;SDS011;70775;50.846;3.224;2023-09-19T09:47:43;8.57;;;1.52;;
81306;SDS011;70775;50.846;3.224;2023-09-19T09:50:31;8.43;;;2.50;;
81306;SDS011;70775;50.846;3.224;2023-09-19T09:53:19;5.40;;;1.60;;
81306;SDS011;70775;50.846;3.224;2023-09-19T09:55:58;4.65;;;1.30;;
81306;SDS011;70775;50.846;3.224;2023-09-19T09:58:31;7.60;;;1.90;;
81306;SDS011;70775;50.846;3.224;2023-09-19T10:01:00;6.60;;;1.50;;
81306;SDS011;70775;50.846;3.224;2023-09-19T10:03:40;4.45;;;1.38;;
81306;SDS011;70775;50.846;3.224;2023-09-19T10:06:12;7.05;;;2.05;;
81306;SDS011;70775;50.846;3.224;2023-09-19T10:09:00;3.63;;;1.58;;
81306;SDS011;70775;50.846;3.224;2023-09-19T10:11:41;4.07;;;1.75;;
81306;SDS011;70775;50.846;3.224;2023-09-19T10:16:40;6.53;;;1.25;;
81306;SDS011;70775;50.846;3.224;2023-09-19T10:19:09;3.55;;;1.23;;
81306;SDS011;70775;50.846;3.224;2023-09-19T10:21:37;4.80;;;1.27;;
81306;SDS011;70775;50.846;3.224;2023-09-19T10:24:04;4.68;;;1.17;;
81306;SDS011;70775;50.846;3.224;2023-09-19T10:26:34;6.10;;;1.85;;
81306;SDS011;70775;50.846;3.224;2023-09-19T10:29:01;4.60;;;1.13;;
81306;SDS011;70775;50.846;3.224;2023-09-19T10:31:29;6.80;;;1.50;;
81306;SDS011;70775;50.846;3.224;2023-09-19T10:33:59;6.22;;;1.55;;
81306;SDS011;70775;50.846;3.224;2023-09-19T10:36:29;5.05;;;1.30;;
81306;SDS011;70775;50.846;3.224;2023-09-19T10:39:00;5.18;;;1.10;;
81306;SDS011;70775;50.846;3.224;2023-09-19T10:41:29;6.13;;;1.10;;
81306;SDS011;70775;50.846;3.224;2023-09-19T10:44:01;2.35;;;1.05;;
81306;SDS011;70775;50.846;3.224;2023-09-19T10:46:31;6.38;;;1.38;;
81306;SDS011;70775;50.846;3.224;2023-09-19T10:49:02;7.90;;;1.55;;
81306;SDS011;70775;50.846;3.224;2023-09-19T10:51:38;6.10;;;1.77;;
81306;SDS011;70775;50.846;3.224;2023-09-19T10:54:13;4.28;;;1.05;;
81306;SDS011;70775;50.846;3.224;2023-09-19T10:56:43;7.47;;;1.48;;
81306;SDS011;70775;50.846;3.224;2023-09-19T10:59:20;4.78;;;1.55;;
81306;SDS011;70775;50.846;3.224;2023-09-19T11:01:50;5.53;;;1.40;;
81306;SDS011;70775;50.846;3.224;2023-09-19T11:04:27;7.10;;;1.80;;
81306;SDS011;70775;50.846;3.224;2023-09-19T11:14:51;8.45;;;1.85;;
81306;SDS011;70775;50.846;3.224;2023-09-19T11:30:32;4.93;;;1.63;;
81306;SDS011;70775;50.846;3.224;2023-09-19T11:43:50;6.65;;;1.60;;
81306;SDS011;70775;50.846;3.224;2023-09-19T11:46:19;5.65;;;1.75;;
81306;SDS011;70775;50.846;3.224;2023-09-19T11:48:49;11.10;;;2.20;;
81306;SDS011;70775;50.846;3.224;2023-09-19T11:51:18;3.80;;;1.52;;
81306;SDS011;70775;50.846;3.224;2023-09-19T11:53:52;7.82;;;2.22;;
81306;SDS011;70775;50.846;3.224;2023-09-19T11:56:19;6.10;;;1.85;;
81306;SDS011;70775;50.846;3.224;2023-09-19T11:58:48;6.75;;;1.80;;
81306;SDS011;70775;50.846;3.224;2023-09-19T12:01:25;4.60;;;1.45;;
81306;SDS011;70775;50.846;3.224;2023-09-19T12:03:55;3.67;;;1.50;;
81306;SDS011;70775;50.846;3.224;2023-09-19T12:06:25;6.00;;;1.63;;
81306;SDS011;70775;50.846;3.224;2023-09-19T12:08:52;4.93;;;1.40;;
81306;SDS011;70775;50.846;3.224;2023-09-19T12:11:27;7.50;;;1.50;;
81306;SDS011;70775;50.846;3.224;2023-09-19T12:13:59;4.45;;;1.77;;
81306;SDS011;70775;50.846;3.224;2023-09-19T12:16:26;5.78;;;1.80;;
81306;SDS011;70775;50.846;3.224;2023-09-19T12:18:55;6.40;;;2.08;;
81306;SDS011;70775;50.846;3.224;2023-09-19T12:21:31;4.53;;;1.70;;
81306;SDS011;70775;50.846;3.224;2023-09-19T12:26:54;5.25;;;2.05;;
81306;SDS011;70775;50.846;3.224;2023-09-19T12:29:29;4.80;;;1.80;;
81306;SDS011;70775;50.846;3.224;2023-09-19T12:31:56;7.55;;;2.03;;
81306;SDS011;70775;50.846;3.224;2023-09-19T12:34:28;4.75;;;1.83;;
81306;SDS011;70775;50.846;3.224;2023-09-19T12:37:07;4.65;;;1.85;;
81306;SDS011;70775;50.846;3.224;2023-09-19T12:39:38;4.75;;;1.70;;
81306;SDS011;70775;50.846;3.224;2023-09-19T12:42:06;5.35;;;2.25;;
81306;SDS011;70775;50.846;3.224;2023-09-19T12:44:34;5.00;;;2.08;;
81306;SDS011;70775;50.846;3.224;2023-09-19T12:47:13;11.02;;;2.00;;
81306;SDS011;70775;50.846;3.224;2023-09-19T12:57:59;5.82;;;1.77;;
81306;SDS011;70775;50.846;3.224;2023-09-19T13:00:32;6.07;;;1.80;;
81306;SDS011;70775;50.846;3.224;2023-09-19T13:05:58;4.95;;;1.85;;
81306;SDS011;70775;50.846;3.224;2023-09-19T13:11:01;8.18;;;1.67;;
81306;SDS011;70775;50.846;3.224;2023-09-19T13:13:31;6.50;;;2.03;;
81306;SDS011;70775;50.846;3.224;2023-09-19T13:15:58;7.18;;;1.85;;
81306;SDS011;70775;50.846;3.224;2023-09-19T13:18:26;9.40;;;2.17;;
81306;SDS011;70775;50.846;3.224;2023-09-19T13:21:11;6.65;;;1.88;;
81306;SDS011;70775;50.846;3.224;2023-09-19T13:23:41;3.58;;;1.92;;
81306;SDS011;70775;50.846;3.224;2023-09-19T13:26:08;5.00;;;1.70;;
81306;SDS011;70775;50.846;3.224;2023-09-19T13:28:35;3.42;;;1.65;;
81306;SDS011;70775;50.846;3.224;2023-09-19T13:31:02;4.60;;;1.42;;
81306;SDS011;70775;50.846;3.224;2023-09-19T13:33:28;6.65;;;1.58;;
81306;SDS011;70775;50.846;3.224;2023-09-19T13:35:53;5.72;;;1.80;;
81306;SDS011;70775;50.846;3.224;2023-09-19T13:38:20;10.73;;;2.33;;
81306;SDS011;70775;50.846;3.224;2023-09-19T13:40:47;4.15;;;1.63;;
81306;SDS011;70775;50.846;3.224;2023-09-19T13:43:13;7.20;;;2.17;;
81306;SDS011;70775;50.846;3.224;2023-09-19T13:45:39;6.72;;;1.73;;
81306;SDS011;70775;50.846;3.224;2023-09-19T13:48:07;8.00;;;1.90;;
81306;SDS011;70775;50.846;3.224;2023-09-19T13:50:36;6.43;;;2.63;;
81306;SDS011;70775;50.846;3.224;2023-09-19T13:53:07;4.85;;;1.58;;
81306;SDS011;70775;50.846;3.224;2023-09-19T13:55:33;6.97;;;2.03;;
81306;SDS011;70775;50.846;3.224;2023-09-19T13:57:59;6.28;;;2.28;;
81306;SDS011;70775;50.846;3.224;2023-09-19T14:00:25;4.22;;;1.60;;
81306;SDS011;70775;50.846;3.224;2023-09-19T14:02:51;7.07;;;2.58;;
81306;SDS011;70775;50.846;3.224;2023-09-19T14:05:17;11.07;;;2.20;;
81306;SDS011;70775;50.846;3.224;2023-09-19T14:07:44;8.82;;;2.22;;
81306;SDS011;70775;50.846;3.224;2023-09-19T14:10:10;8.40;;;2.50;;
81306;SDS011;70775;50.846;3.224;2023-09-19T14:12:40;7.32;;;2.50;;
81306;SDS011;70775;50.846;3.224;2023-09-19T14:15:06;12.20;;;2.35;;
81306;SDS011;70775;50.846;3.224;2023-09-19T14:17:33;9.70;;;2.72;;
81306;SDS011;70775;50.846;3.224;2023-09-19T14:19:59;7.82;;;2.60;;
81306;SDS011;70775;50.846;3.224;2023-09-19T14:22:24;11.48;;;2.63;;
81306;SDS011;70775;50.846;3.224;2023-09-19T14:24:50;6.93;;;2.45;;
81306;SDS011;70775;50.846;3.224;2023-09-19T14:27:16;10.18;;;2.53;;
81306;SDS011;70775;50.846;3.224;2023-09-19T14:29:42;6.75;;;2.20;;
81306;SDS011;70775;50.846;3.224;2023-09-19T14:32:08;7.38;;;2.15;;
81306;SDS011;70775;50.846;3.224;2023-09-19T14:34:34;7.93;;;2.05;;
81306;SDS011;70775;50.846;3.224;2023-09-19T14:37:01;9.38;;;2.30;;
81306;SDS011;70775;50.846;3.224;2023-09-19T14:39:27;7.03;;;2.30;;
81306;SDS011;70775;50.846;3.224;2023-09-19T14:41:53;11.38;;;2.65;;
81306;SDS011;70775;50.846;3.224;2023-09-19T14:44:19;11.07;;;2.70;;
81306;SDS011;70775;50.846;3.224;2023-09-19T14:46:44;8.00;;;2.20;;
81306;SDS011;70775;50.846;3.224;2023-09-19T14:49:10;7.60;;;2.63;;
81306;SDS011;70775;50.846;3.224;2023-09-19T14:51:37;7.97;;;2.72;;
81306;SDS011;70775;50.846;3.224;2023-09-19T14:54:05;8.30;;;2.25;;
81306;SDS011;70775;50.846;3.224;2023-09-19T14:56:32;6.07;;;2.17;;
81306;SDS011;70775;50.846;3.224;2023-09-19T14:58:58;7.25;;;2.10;;
81306;SDS011;70775;50.846;3.224;2023-09-19T15:01:24;8.82;;;2.30;;
81306;SDS011;70775;50.846;3.224;2023-09-19T15:03:50;8.25;;;2.67;;
81306;SDS011;70775;50.846;3.224;2023-09-19T15:06:15;9.90;;;3.20;;
81306;SDS011;70775;50.846;3.224;2023-09-19T15:08:45;10.95;;;2.88;;
81306;SDS011;70775;50.846;3.224;2023-09-19T15:11:21;6.10;;;2.28;;
81306;SDS011;70775;50.846;3.224;2023-09-19T15:13:48;7.32;;;2.45;;
81306;SDS011;70775;50.846;3.224;2023-09-19T15:16:16;6.68;;;2.38;;
81306;SDS011;70775;50.846;3.224;2023-09-19T15:18:44;10.27;;;3.92;;
81306;SDS011;70775;50.846;3.224;2023-09-19T15:21:12;7.03;;;2.25;;
81306;SDS011;70775;50.846;3.224;2023-09-19T15:23:40;7.82;;;2.55;;
81306;SDS011;70775;50.846;3.224;2023-09-19T15:26:07;11.57;;;2.92;;
81306;SDS011;70775;50.846;3.224;2023-09-19T15:28:34;8.00;;;2.80;;
81306;SDS011;70775;50.846;3.224;2023-09-19T15:31:01;11.00;;;2.90;;
81306;SDS011;70775;50.846;3.224;2023-09-19T15:33:31;14.77;;;3.50;;
81306;SDS011;70775;50.846;3.224;2023-09-19T15:36:04;7.07;;;2.80;;
81306;SDS011;70775;50.846;3.224;2023-09-19T15:41:23;7.57;;;2.10;;
81306;SDS011;70775;50.846;3.224;2023-09-19T15:43:49;15.52;;;3.72;;
81306;SDS011;70775;50.846;3.224;2023-09-19T15:46:15;7.85;;;2.75;;
81306;SDS011;70775;50.846;3.224;2023-09-19T15:48:41;6.80;;;2.75;;
81306;SDS011;70775;50.846;3.224;2023-09-19T15:51:07;6.95;;;2.90;;
81306;SDS011;70775;50.846;3.224;2023-09-19T15:53:41;14.38;;;3.63;;
81306;SDS011;70775;50.846;3.224;2023-09-19T15:56:12;10.88;;;3.13;;
81306;SDS011;70775;50.846;3.224;2023-09-19T15:58:39;8.75;;;3.08;;
81306;SDS011;70775;50.846;3.224;2023-09-19T16:01:05;11.23;;;3.42;;
81306;SDS011;70775;50.846;3.224;2023-09-19T16:03:35;11.30;;;4.00;;
81306;SDS011;70775;50.846;3.224;2023-09-19T16:06:07;12.32;;;4.05;;
81306;SDS011;70775;50.846;3.224;2023-09-19T16:08:40;10.65;;;4.60;;
81306;SDS011;70775;50.846;3.224;2023-09-19T16:11:07;12.07;;;3.75;;
81306;SDS011;70775;50.846;3.224;2023-09-19T16:13:33;9.65;;;3.85;;
81306;SDS011;70775;50.846;3.224;2023-09-19T16:16:00;11.63;;;4.00;;
81306;SDS011;70775;50.846;3.224;2023-09-19T16:18:25;14.82;;;4.20;;
81306;SDS011;70775;50.846;3.224;2023-09-19T16:20:51;14.07;;;4.57;;
81306;SDS011;70775;50.846;3.224;2023-09-19T16:23:17;11.15;;;4.20;;
81306;SDS011;70775;50.846;3.224;2023-09-19T16:25:43;11.00;;;3.63;;
81306;SDS011;70775;50.846;3.224;2023-09-19T16:28:10;12.38;;;4.30;;
81306;SDS011;70775;50.846;3.224;2023-09-19T16:30:36;11.05;;;4.15;;
81306;SDS011;70775;50.846;3.224;2023-09-19T16:33:04;9.00;;;3.67;;
81306;SDS011;70775;50.846;3.224;2023-09-19T16:35:30;9.55;;;3.58;;
81306;SDS011;70775;50.846;3.224;2023-09-19T16:37:56;16.80;;;4.97;;
81306;SDS011;70775;50.846;3.224;2023-09-19T16:40:21;15.15;;;4.63;;
81306;SDS011;70775;50.846;3.224;2023-09-19T16:42:47;18.15;;;5.13;;
81306;SDS011;70775;50.846;3.224;2023-09-19T16:45:14;17.05;;;5.45;;
81306;SDS011;70775;50.846;3.224;2023-09-19T16:47:40;11.02;;;3.90;;
81306;SDS011;70775;50.846;3.224;2023-09-19T16:50:06;13.32;;;4.20;;
81306;SDS011;70775;50.846;3.224;2023-09-19T16:52:33;14.05;;;4.40;;
81306;SDS011;70775;50.846;3.224;2023-09-19T16:54:59;12.70;;;4.18;;
81306;SDS011;70775;50.846;3.224;2023-09-19T16:57:24;12.68;;;4.70;;
81306;SDS011;70775;50.846;3.224;2023-09-19T16:59:50;15.70;;;4.72;;
81306;SDS011;70775;50.846;3.224;2023-09-19T17:02:16;13.38;;;4.97;;
81306;SDS011;70775;50.846;3.224;2023-09-19T17:04:42;17.38;;;5.03;;
81306;SDS011;70775;50.846;3.224;2023-09-19T17:07:08;10.57;;;4.32;;
81306;SDS011;70775;50.846;3.224;2023-09-19T17:09:34;15.75;;;4.78;;
81306;SDS011;70775;50.846;3.224;2023-09-19T17:12:00;12.32;;;4.72;;
81306;SDS011;70775;50.846;3.224;2023-09-19T17:14:28;12.07;;;4.50;;
81306;SDS011;70775;50.846;3.224;2023-09-19T17:16:54;17.58;;;5.28;;
81306;SDS011;70775;50.846;3.224;2023-09-19T17:19:20;11.65;;;4.68;;
81306;SDS011;70775;50.846;3.224;2023-09-19T17:24:18;11.02;;;5.43;;